Terminal Aerodrome Forecast
Issued by NWS

Home | Current Version | Previous Version | Text Only | Print | Product List | Glossary On
Versions: 1 2 3 4 5 6 7 8 9 10 11 12 13 14
000
FTUS46 KSGX 200500
TAFTRM
TAF
KTRM 200532Z 2006/2106 00000KT P6SM SKC
     FM201800 14005KT P6SM SCT200
     FM210400 33005KT P6SM SCT200=

USA.gov is the U.S. government's official web portal to all federal, state and local government web resources and services.